Time;durP1;ratioP1;P1;durP2;ratioP2;P2;SDS_P1;SDS_P2;PMS_P1;PMS_P2;Temp;Humidity;BMP_temperature;BMP_pressure;BME280_temperature;BME280_humidity;BME280_pressure;Samples;Min_cycle;Max_cycle;Signal;HPM_P1;HPM_P2
2021/11/27 00:00:57;;;;;;;14.65;9.30;;;3.10;99.90;;;;;;5080467;28;20017;-61
2021/11/27 00:03:23;;;;;;;16.27;8.25;;;3.20;99.90;;;;;;5063900;28;20500;-61
2021/11/27 00:05:51;;;;;;;16.98;9.25;;;3.20;99.90;;;;;;5080723;28;20028;-61
2021/11/27 00:08:17;;;;;;;15.48;9.18;;;3.20;99.90;;;;;;5081739;28;20055;-62
2021/11/27 00:10:47;;;;;;;15.15;8.75;;;3.20;99.90;;;;;;5080161;28;20037;-63
2021/11/27 00:13:13;;;;;;;15.15;8.20;;;3.30;99.90;;;;;;5080738;28;20021;-60
2021/11/27 00:15:40;;;;;;;14.93;8.35;;;3.20;99.90;;;;;;5081950;28;20028;-61
2021/11/27 00:18:07;;;;;;;15.88;8.93;;;3.30;99.90;;;;;;5080989;28;20028;-61
2021/11/27 00:21:12;;;;;;;16.45;8.02;;;3.30;99.90;;;;;;5056866;28;20497;-61
2021/11/27 00:23:40;;;;;;;15.98;8.63;;;3.20;99.90;;;;;;4977351;28;20046;-61
2021/11/27 00:26:09;;;;;;;16.75;8.88;;;3.20;99.90;;;;;;4990002;28;20507;-61
2021/11/27 00:28:35;;;;;;;13.82;7.93;;;3.20;99.90;;;;;;4990059;28;20038;-61
2021/11/27 00:31:11;;;;;;;14.95;8.25;;;3.20;99.90;;;;;;4990066;28;20030;-63
2021/11/27 00:33:36;;;;;;;15.43;8.90;;;3.30;99.90;;;;;;4990669;28;20034;-63
2021/11/27 00:36:03;;;;;;;12.43;7.28;;;3.30;99.90;;;;;;4989623;28;20501;-62
2021/11/27 00:38:28;;;;;;;15.75;7.72;;;3.20;99.90;;;;;;4990549;28;20369;-61
2021/11/27 00:40:55;;;;;;;11.85;7.70;;;3.20;99.90;;;;;;4990474;28;20219;-61
2021/11/27 00:43:20;;;;;;;13.25;7.07;;;3.10;99.90;;;;;;4989790;28;20065;-60
2021/11/27 00:45:48;;;;;;;14.80;7.78;;;3.10;99.90;;;;;;4990748;28;20108;-61
2021/11/27 00:48:16;;;;;;;13.07;7.38;;;3.20;99.90;;;;;;4989726;28;20043;-61
2021/11/27 00:50:52;;;;;;;14.00;7.30;;;3.20;99.90;;;;;;4990311;28;20058;-61
2021/11/27 00:53:19;;;;;;;11.05;6.47;;;3.30;99.90;;;;;;4995135;28;20041;-61
2021/11/27 00:55:45;;;;;;;13.93;6.70;;;3.30;99.90;;;;;;5071721;28;20472;-61
2021/11/27 00:58:11;;;;;;;12.68;7.22;;;3.40;99.90;;;;;;5071410;28;20071;-62
2021/11/27 01:00:40;;;;;;;12.60;7.57;;;3.30;99.90;;;;;;5053608;28;20047;-62
2021/11/27 01:03:09;;;;;;;11.30;6.60;;;3.40;99.90;;;;;;5053405;28;20028;-62
2021/11/27 01:05:37;;;;;;;9.77;5.88;;;3.50;99.90;;;;;;5053832;28;20036;-61
2021/11/27 01:08:04;;;;;;;9.18;5.68;;;3.50;99.90;;;;;;5071149;28;20446;-61
2021/11/27 01:10:34;;;;;;;11.02;6.35;;;3.50;99.90;;;;;;5052865;28;20025;-62
2021/11/27 01:12:59;;;;;;;10.77;6.78;;;3.60;99.90;;;;;;5053350;28;20021;-62
2021/11/27 01:15:29;;;;;;;10.63;6.32;;;3.60;99.90;;;;;;5070812;28;20055;-62
2021/11/27 01:17:55;;;;;;;11.52;5.82;;;3.60;99.90;;;;;;5070926;28;20028;-61
2021/11/27 01:20:27;;;;;;;10.70;5.32;;;3.60;99.90;;;;;;5070639;28;20165;-61
2021/11/27 01:22:55;;;;;;;9.50;5.85;;;3.70;99.90;;;;;;5071016;28;20060;-62
2021/11/27 01:25:20;;;;;;;9.75;5.28;;;3.70;99.90;;;;;;5070617;28;20036;-62
2021/11/27 01:27:46;;;;;;;9.43;5.80;;;3.80;99.90;;;;;;5053217;28;20024;-62
2021/11/27 01:30:14;;;;;;;8.45;4.65;;;3.80;99.90;;;;;;5070683;28;20104;-62
2021/11/27 01:32:40;;;;;;;7.57;4.75;;;3.80;99.90;;;;;;5071167;28;20021;-62
2021/11/27 01:35:07;;;;;;;8.52;4.82;;;3.80;99.90;;;;;;5070841;28;20064;-63
2021/11/27 01:37:34;;;;;;;10.93;5.28;;;3.70;99.90;;;;;;5070940;28;20450;-62
2021/11/27 01:40:00;;;;;;;13.75;6.70;;;3.70;99.90;;;;;;5071213;28;20032;-62
2021/11/27 01:42:27;;;;;;;8.00;5.03;;;3.70;99.90;;;;;;5070483;28;20033;-62
2021/11/27 01:44:53;;;;;;;7.75;5.10;;;3.70;99.90;;;;;;5069818;28;20036;-60
2021/11/27 01:47:19;;;;;;;8.20;4.63;;;3.80;99.90;;;;;;5051957;28;20039;-61
2021/11/27 01:49:44;;;;;;;10.77;5.38;;;3.80;99.90;;;;;;5070639;28;20320;-61
2021/11/27 01:52:11;;;;;;;14.48;6.60;;;3.90;99.90;;;;;;5052337;28;20020;-62
2021/11/27 01:54:37;;;;;;;7.35;5.00;;;3.80;99.90;;;;;;5070470;28;20033;-62
2021/11/27 01:57:06;;;;;;;10.73;5.43;;;3.80;99.90;;;;;;5070879;28;20032;-62
2021/11/27 01:59:34;;;;;;;8.52;4.53;;;3.70;99.90;;;;;;5070932;28;20371;-62
2021/11/27 02:02:00;;;;;;;8.30;5.43;;;3.90;99.90;;;;;;5070536;28;20025;-62
2021/11/27 02:04:28;;;;;;;6.20;4.13;;;3.90;99.90;;;;;;5070077;28;20419;-62
2021/11/27 02:06:55;;;;;;;7.38;4.15;;;3.90;99.90;;;;;;5070774;28;20114;-64
2021/11/27 02:09:27;;;;;;;6.07;4.22;;;3.90;99.90;;;;;;5070319;28;20032;-62
2021/11/27 02:11:54;;;;;;;7.57;4.43;;;3.80;99.90;;;;;;5069584;28;20499;-62
2021/11/27 02:14:19;;;;;;;9.50;5.10;;;3.80;99.90;;;;;;5069963;28;20453;-62
2021/11/27 02:16:46;;;;;;;7.55;4.70;;;3.80;99.90;;;;;;5052524;28;20150;-62
2021/11/27 02:19:13;;;;;;;6.70;4.28;;;3.90;99.90;;;;;;5070140;28;20028;-62
2021/11/27 02:21:44;;;;;;;6.68;4.05;;;3.90;99.90;;;;;;5070561;28;20153;-61
2021/11/27 02:24:11;;;;;;;6.65;4.05;;;3.90;99.90;;;;;;5074005;28;20107;-61
2021/11/27 02:26:37;;;;;;;8.02;4.65;;;3.90;99.90;;;;;;5073242;28;20033;-64
2021/11/27 02:29:07;;;;;;;7.00;4.88;;;3.90;99.90;;;;;;5074383;28;20035;-62
2021/11/27 02:31:34;;;;;;;5.45;3.95;;;3.80;99.90;;;;;;5074467;28;20086;-62
2021/11/27 02:34:00;;;;;;;7.88;4.53;;;3.90;99.90;;;;;;5074309;28;20078;-62
2021/11/27 02:36:28;;;;;;;6.03;3.83;;;3.90;99.90;;;;;;5055892;28;20059;-63
2021/11/27 02:38:55;;;;;;;5.35;3.72;;;4.00;99.90;;;;;;5056216;28;20377;-62
2021/11/27 02:41:21;;;;;;;7.47;4.70;;;4.00;99.90;;;;;;5072255;28;20056;-62
2021/11/27 02:43:47;;;;;;;5.32;3.53;;;4.00;99.90;;;;;;5073971;28;20087;-62
2021/11/27 02:46:12;;;;;;;7.75;4.22;;;4.00;99.90;;;;;;5073599;28;20032;-62
2021/11/27 02:48:38;;;;;;;6.00;3.97;;;3.90;99.90;;;;;;5074143;28;20025;-62
2021/11/27 02:51:04;;;;;;;5.53;3.70;;;4.00;99.90;;;;;;5074365;28;20377;-62
2021/11/27 02:53:30;;;;;;;5.88;3.90;;;3.90;99.90;;;;;;5055542;28;20048;-62
2021/11/27 02:55:55;;;;;;;8.18;4.03;;;3.80;99.90;;;;;;5055856;28;20037;-62
2021/11/27 02:58:21;;;;;;;8.50;4.60;;;3.90;99.90;;;;;;5055520;28;20405;-62
2021/11/27 03:00:52;;;;;;;6.18;3.72;;;3.80;99.90;;;;;;5074020;28;20068;-62
2021/11/27 03:03:18;;;;;;;5.47;3.70;;;3.90;99.90;;;;;;5073284;28;20035;-62
2021/11/27 03:05:44;;;;;;;6.60;3.35;;;3.80;99.90;;;;;;5073935;28;20028;-62
2021/11/27 03:08:10;;;;;;;3.58;3.08;;;3.80;99.90;;;;;;5074018;28;20466;-61
2021/11/27 03:10:36;;;;;;;4.30;3.38;;;3.90;99.90;;;;;;5055665;28;20078;-62
2021/11/27 03:13:02;;;;;;;5.07;3.53;;;3.90;99.90;;;;;;5073535;28;20025;-62
2021/11/27 03:15:28;;;;;;;5.03;3.38;;;3.90;99.90;;;;;;5073091;28;20047;-62
2021/11/27 03:17:53;;;;;;;5.20;3.30;;;3.90;99.90;;;;;;5073879;28;20111;-61
2021/11/27 03:20:20;;;;;;;6.13;3.97;;;3.90;99.90;;;;;;5073260;28;20044;-63
2021/11/27 03:22:46;;;;;;;5.47;3.53;;;3.90;99.90;;;;;;5073767;28;20083;-62
2021/11/27 03:25:12;;;;;;;5.63;4.15;;;3.90;99.90;;;;;;5073170;28;20390;-63
2021/11/27 03:27:40;;;;;;;4.35;3.60;;;3.90;99.90;;;;;;5073498;28;20060;-61
2021/11/27 03:30:09;;;;;;;3.72;3.17;;;3.90;99.90;;;;;;5073559;28;20048;-61
2021/11/27 03:32:35;;;;;;;5.45;3.15;;;3.90;99.90;;;;;;5072630;28;20025;-61
2021/11/27 03:35:00;;;;;;;6.75;3.47;;;3.90;99.90;;;;;;5072265;28;20037;-61
2021/11/27 03:37:26;;;;;;;6.13;3.92;;;3.90;99.90;;;;;;5072653;28;20029;-61
2021/11/27 03:39:52;;;;;;;4.57;3.33;;;3.90;99.90;;;;;;5073282;28;20035;-61
2021/11/27 03:42:18;;;;;;;5.80;3.70;;;3.70;99.90;;;;;;5072462;28;20121;-62
2021/11/27 03:44:45;;;;;;;4.60;3.53;;;3.60;99.90;;;;;;5073174;28;20036;-61
2021/11/27 03:47:11;;;;;;;6.38;3.60;;;3.60;99.90;;;;;;5072832;28;20036;-61
2021/11/27 03:49:37;;;;;;;5.45;3.50;;;3.70;99.90;;;;;;5054457;28;20150;-60
2021/11/27 03:52:03;;;;;;;4.22;3.17;;;3.80;99.90;;;;;;5072943;28;20107;-61
2021/11/27 03:54:29;;;;;;;6.45;4.30;;;3.70;99.90;;;;;;5072032;28;20039;-61
2021/11/27 03:56:56;;;;;;;7.10;4.00;;;3.80;99.90;;;;;;5054438;28;20021;-62
2021/11/27 03:59:22;;;;;;;4.03;3.30;;;3.70;99.90;;;;;;5071969;28;20388;-63
2021/11/27 04:01:48;;;;;;;5.85;4.30;;;3.80;99.90;;;;;;5072844;28;20027;-62
2021/11/27 04:04:14;;;;;;;4.22;3.30;;;3.90;99.90;;;;;;5054557;28;20119;-64
2021/11/27 04:06:41;;;;;;;4.50;3.60;;;3.90;99.90;;;;;;5054793;28;20028;-62
2021/11/27 04:09:09;;;;;;;5.20;4.25;;;3.80;99.90;;;;;;5072389;28;20031;-62
2021/11/27 04:11:38;;;;;;;4.93;3.67;;;3.90;99.90;;;;;;5071909;28;20033;-61
2021/11/27 04:14:05;;;;;;;4.38;3.65;;;3.80;99.90;;;;;;5072935;28;20031;-62
2021/11/27 04:16:31;;;;;;;5.32;3.75;;;3.90;99.90;;;;;;5053768;28;20423;-61
2021/11/27 04:18:56;;;;;;;5.53;3.95;;;3.80;99.90;;;;;;5072451;28;20036;-61
2021/11/27 04:21:22;;;;;;;4.45;3.67;;;3.90;99.90;;;;;;5071470;28;20052;-62
2021/11/27 04:23:50;;;;;;;4.47;3.72;;;3.80;99.90;;;;;;5054139;28;20482;-61
2021/11/27 04:26:16;;;;;;;7.47;4.47;;;3.90;99.90;;;;;;5071619;28;20060;-64
2021/11/27 04:28:42;;;;;;;4.38;3.55;;;4.00;99.90;;;;;;5054644;28;20024;-62
2021/11/27 04:31:09;;;;;;;5.32;3.58;;;3.90;99.90;;;;;;5072151;28;20036;-62
2021/11/27 04:33:36;;;;;;;4.85;3.45;;;4.00;99.90;;;;;;5071275;28;20021;-62
2021/11/27 04:36:03;;;;;;;5.65;3.97;;;4.00;99.90;;;;;;5070459;28;20068;-62
2021/11/27 04:38:29;;;;;;;9.57;4.45;;;4.10;99.90;;;;;;5071399;28;20119;-60
2021/11/27 04:40:55;;;;;;;5.60;3.30;;;4.10;99.90;;;;;;5053932;28;20055;-61
2021/11/27 04:43:21;;;;;;;4.03;3.30;;;4.00;99.90;;;;;;5071081;28;20028;-61
2021/11/27 04:45:48;;;;;;;6.43;4.00;;;4.00;99.90;;;;;;5053746;28;20462;-62
2021/11/27 04:48:14;;;;;;;7.20;3.92;;;4.00;99.90;;;;;;5070666;28;20354;-61
2021/11/27 04:50:41;;;;;;;4.53;3.03;;;4.00;99.90;;;;;;5071124;28;20428;-61
2021/11/27 04:53:07;;;;;;;9.85;4.47;;;4.10;99.90;;;;;;5072090;28;20087;-61
2021/11/27 04:55:33;;;;;;;7.90;3.97;;;4.00;99.90;;;;;;5071200;28;20045;-61
2021/11/27 04:58:00;;;;;;;8.30;4.38;;;4.00;99.90;;;;;;5071608;28;20139;-61
2021/11/27 05:00:38;;;;;;;6.03;3.55;;;3.90;99.90;;;;;;5071278;28;20062;-61
2021/11/27 05:03:04;;;;;;;4.38;3.42;;;3.90;99.90;;;;;;5071998;28;20036;-61
2021/11/27 05:05:30;;;;;;;6.53;4.15;;;4.00;99.90;;;;;;5069696;28;20028;-61
2021/11/27 05:07:56;;;;;;;4.10;3.67;;;4.00;99.90;;;;;;5071804;28;20031;-61
2021/11/27 05:10:22;;;;;;;6.50;3.90;;;4.00;99.90;;;;;;5070859;28;20021;-61
2021/11/27 05:12:48;;;;;;;6.00;3.78;;;4.00;99.90;;;;;;5071438;28;20107;-62
2021/11/27 05:15:14;;;;;;;5.93;4.05;;;4.10;99.90;;;;;;5071532;28;20124;-62
2021/11/27 05:17:40;;;;;;;3.72;3.05;;;4.20;99.90;;;;;;5035919;28;20044;-60
2021/11/27 05:20:07;;;;;;;3.75;2.92;;;4.10;99.90;;;;;;5071832;28;20028;-61
2021/11/27 05:22:33;;;;;;;7.65;3.35;;;4.10;99.90;;;;;;5036160;28;20057;-61
2021/11/27 05:24:59;;;;;;;9.30;3.30;;;4.20;99.90;;;;;;5053480;28;20123;-61
2021/11/27 05:27:25;;;;;;;5.22;3.30;;;4.00;99.90;;;;;;5070776;28;20027;-62
2021/11/27 05:29:51;;;;;;;5.80;3.60;;;4.10;99.90;;;;;;5071730;28;20134;-62
2021/11/27 05:32:25;;;;;;;5.90;4.15;;;4.00;99.90;;;;;;5071099;28;20103;-61
2021/11/27 05:34:52;;;;;;;4.13;3.22;;;4.10;99.90;;;;;;5053220;28;20044;-61
2021/11/27 05:37:18;;;;;;;5.50;3.20;;;4.00;99.90;;;;;;5071108;28;20477;-61
2021/11/27 05:39:44;;;;;;;3.40;2.80;;;4.00;99.90;;;;;;5070909;28;20086;-62
2021/11/27 05:42:12;;;;;;;4.50;3.45;;;4.00;99.90;;;;;;5053284;28;20025;-62
2021/11/27 05:44:38;;;;;;;4.40;3.33;;;4.10;99.90;;;;;;5070592;28;20163;-61
2021/11/27 05:47:04;;;;;;;3.83;2.75;;;4.00;99.90;;;;;;5070795;28;20467;-62
2021/11/27 05:49:30;;;;;;;5.20;2.88;;;4.10;99.90;;;;;;5070610;28;20485;-62
2021/11/27 05:51:56;;;;;;;3.20;2.72;;;4.00;99.90;;;;;;5053201;28;20024;-62
2021/11/27 05:54:21;;;;;;;5.25;3.55;;;4.00;99.90;;;;;;5070550;28;20107;-62
2021/11/27 05:56:47;;;;;;;5.45;3.30;;;4.00;99.90;;;;;;5071526;28;20430;-61
2021/11/27 05:59:13;;;;;;;5.70;2.70;;;4.10;99.90;;;;;;5057251;28;20090;-62
2021/11/27 06:01:39;;;;;;;6.50;2.63;;;4.10;99.90;;;;;;5074612;28;20024;-62
2021/11/27 06:04:04;;;;;;;3.30;1.80;;;4.20;99.90;;;;;;5074813;28;20020;-61
2021/11/27 06:06:30;;;;;;;3.58;2.65;;;4.20;99.90;;;;;;5074719;28;20304;-62
2021/11/27 06:08:56;;;;;;;2.30;2.10;;;4.20;99.90;;;;;;5056963;28;20028;-62
2021/11/27 06:11:22;;;;;;;3.42;2.60;;;4.20;99.90;;;;;;5074615;28;20020;-62
2021/11/27 06:13:48;;;;;;;3.42;2.38;;;4.30;99.90;;;;;;5074967;28;20020;-62
2021/11/27 06:16:14;;;;;;;2.53;2.22;;;4.30;99.90;;;;;;5074339;28;20117;-62
2021/11/27 06:18:40;;;;;;;3.60;1.98;;;4.30;99.90;;;;;;5073914;28;20017;-63
2021/11/27 06:21:05;;;;;;;4.50;2.45;;;4.30;99.90;;;;;;5075003;28;20478;-60
2021/11/27 06:23:32;;;;;;;3.28;2.22;;;4.10;99.90;;;;;;5074021;28;20029;-63
2021/11/27 06:25:57;;;;;;;3.47;2.70;;;4.20;99.90;;;;;;5074226;28;20462;-62
2021/11/27 06:28:23;;;;;;;3.80;1.85;;;4.30;99.90;;;;;;5073818;28;20036;-63
2021/11/27 06:30:49;;;;;;;3.20;2.45;;;4.30;99.90;;;;;;5056619;28;20112;-63
2021/11/27 06:33:15;;;;;;;3.50;2.38;;;4.20;99.90;;;;;;5056572;28;20110;-62
2021/11/27 06:35:41;;;;;;;2.60;2.35;;;4.10;99.90;;;;;;5055843;28;20068;-61
2021/11/27 06:38:07;;;;;;;3.03;2.33;;;4.00;99.90;;;;;;5074577;28;20057;-60
2021/11/27 06:40:33;;;;;;;4.35;2.58;;;4.00;99.90;;;;;;5073734;28;20035;-62
2021/11/27 06:43:01;;;;;;;3.33;2.42;;;4.00;99.90;;;;;;5074794;28;20025;-61
2021/11/27 06:45:31;;;;;;;2.97;2.45;;;4.00;99.90;;;;;;5073791;28;20069;-62
2021/11/27 06:47:57;;;;;;;3.30;3.00;;;4.00;99.90;;;;;;5073884;28;20033;-62
2021/11/27 06:50:24;;;;;;;3.03;2.42;;;4.10;99.90;;;;;;5039739;28;20067;-62
2021/11/27 06:52:50;;;;;;;4.15;2.63;;;4.10;99.90;;;;;;5074246;28;20458;-62
2021/11/27 06:55:16;;;;;;;6.45;2.78;;;4.10;99.90;;;;;;5074348;28;20115;-62
2021/11/27 06:57:42;;;;;;;2.97;2.67;;;4.10;99.90;;;;;;5073223;28;20077;-62
2021/11/27 07:00:09;;;;;;;6.32;2.92;;;4.20;99.90;;;;;;5075872;28;20020;-61
2021/11/27 07:02:35;;;;;;;3.55;3.13;;;4.20;99.90;;;;;;5093569;28;20036;-62
2021/11/27 07:05:00;;;;;;;3.95;2.85;;;4.20;99.90;;;;;;5076344;28;20028;-61
2021/11/27 07:07:26;;;;;;;8.02;3.40;;;4.30;99.90;;;;;;5093991;28;20109;-62
2021/11/27 07:09:53;;;;;;;5.50;2.80;;;4.20;99.90;;;;;;5092555;28;20126;-62
2021/11/27 07:12:18;;;;;;;4.22;3.05;;;4.10;99.90;;;;;;5076083;28;20497;-63
2021/11/27 07:14:44;;;;;;;3.88;3.10;;;4.10;99.90;;;;;;5075334;28;20036;-62
2021/11/27 07:17:10;;;;;;;3.53;2.90;;;4.20;99.90;;;;;;5075718;28;20036;-63
2021/11/27 07:19:35;;;;;;;2.80;2.60;;;4.10;99.90;;;;;;5093537;28;20051;-62
2021/11/27 07:22:02;;;;;;;5.45;3.00;;;4.10;99.90;;;;;;5075626;28;20044;-62
2021/11/27 07:24:28;;;;;;;6.68;3.17;;;4.10;99.90;;;;;;5075127;28;20039;-61
2021/11/27 07:26:54;;;;;;;4.28;3.13;;;4.20;99.90;;;;;;5093487;28;20020;-62
2021/11/27 07:29:20;;;;;;;3.08;2.78;;;4.10;99.90;;;;;;5093657;28;20020;-62
2021/11/27 07:31:47;;;;;;;5.30;3.90;;;4.20;99.90;;;;;;5074646;28;20344;-62
2021/11/27 07:34:13;;;;;;;5.65;4.13;;;4.20;99.90;;;;;;5093063;28;20077;-62
2021/11/27 07:36:39;;;;;;;5.55;3.63;;;4.20;99.90;;;;;;5092760;28;20024;-62
2021/11/27 07:39:07;;;;;;;4.90;3.72;;;4.10;99.90;;;;;;5093476;28;20035;-62
2021/11/27 07:41:33;;;;;;;5.50;3.95;;;4.20;99.90;;;;;;5090911;28;20051;-62
2021/11/27 07:43:59;;;;;;;7.32;3.83;;;4.10;99.90;;;;;;5060698;28;20101;-62
2021/11/27 07:46:25;;;;;;;5.30;4.43;;;4.20;99.90;;;;;;5075128;28;20039;-61
2021/11/27 07:48:51;;;;;;;5.82;4.63;;;4.20;99.90;;;;;;5092727;28;20024;-60
2021/11/27 07:51:16;;;;;;;5.78;4.70;;;4.20;99.90;;;;;;5093172;28;20020;-62
2021/11/27 07:53:43;;;;;;;5.03;4.40;;;4.20;99.90;;;;;;5074619;28;20020;-62
2021/11/27 07:56:09;;;;;;;6.45;4.75;;;4.20;99.90;;;;;;5074843;28;20040;-61
2021/11/27 07:58:35;;;;;;;7.10;5.30;;;4.20;99.90;;;;;;5074276;28;20054;-62
2021/11/27 08:01:01;;;;;;;7.10;4.93;;;4.20;99.90;;;;;;5074763;28;20024;-62
2021/11/27 08:03:26;;;;;;;8.57;4.25;;;4.20;99.90;;;;;;5074830;28;20410;-61
2021/11/27 08:05:52;;;;;;;7.85;4.95;;;4.30;99.90;;;;;;5092388;28;20055;-62
2021/11/27 08:08:18;;;;;;;6.20;4.88;;;4.30;99.90;;;;;;5093225;28;20035;-62
2021/11/27 08:10:43;;;;;;;5.10;4.55;;;4.30;99.90;;;;;;5092162;28;20039;-61
2021/11/27 08:13:12;;;;;;;6.80;4.32;;;4.20;99.90;;;;;;5092771;28;20429;-61
2021/11/27 08:15:38;;;;;;;6.43;4.93;;;4.30;99.90;;;;;;5091793;28;20107;-63
2021/11/27 08:18:03;;;;;;;5.03;4.05;;;4.40;99.90;;;;;;5074463;28;20492;-61
2021/11/27 08:20:29;;;;;;;6.40;4.35;;;4.40;99.90;;;;;;5092015;28;20107;-64
2021/11/27 08:22:55;;;;;;;4.93;4.40;;;4.40;99.90;;;;;;5092863;28;20052;-61
2021/11/27 08:25:21;;;;;;;6.07;4.20;;;4.40;99.90;;;;;;5092554;28;20035;-65
2021/11/27 08:27:47;;;;;;;6.63;4.10;;;4.50;99.90;;;;;;5091518;28;20485;-62
2021/11/27 08:30:12;;;;;;;4.45;4.05;;;4.60;99.90;;;;;;5092230;28;20477;-62
2021/11/27 08:32:39;;;;;;;4.97;3.15;;;4.50;99.90;;;;;;5091550;28;20058;-63
2021/11/27 08:35:07;;;;;;;5.15;4.07;;;4.60;99.90;;;;;;5092034;28;20036;-62
2021/11/27 08:37:33;;;;;;;4.65;3.97;;;4.50;99.90;;;;;;5091722;28;20066;-64
2021/11/27 08:39:59;;;;;;;5.97;3.65;;;4.70;99.90;;;;;;5091834;28;20031;-63
2021/11/27 08:42:26;;;;;;;4.20;3.80;;;4.70;99.90;;;;;;5069197;28;20352;-63
2021/11/27 08:44:52;;;;;;;5.07;4.45;;;4.50;99.90;;;;;;5070954;28;20040;-62
2021/11/27 08:47:19;;;;;;;4.40;3.47;;;4.50;99.90;;;;;;5060674;28;20036;-62
2021/11/27 08:49:46;;;;;;;4.97;3.75;;;4.50;99.90;;;;;;5073029;28;20438;-61
2021/11/27 08:52:12;;;;;;;5.80;4.10;;;4.60;99.90;;;;;;5091917;28;20032;-62
2021/11/27 08:54:38;;;;;;;7.70;4.40;;;4.60;99.90;;;;;;5091341;28;20032;-62
2021/11/27 08:57:04;;;;;;;3.83;3.30;;;4.60;99.90;;;;;;5091999;28;20412;-62
2021/11/27 08:59:29;;;;;;;4.57;3.63;;;4.60;99.90;;;;;;5073546;28;20025;-63
2021/11/27 09:01:56;;;;;;;5.60;3.20;;;4.70;99.90;;;;;;5073306;28;20027;-62
2021/11/27 09:04:22;;;;;;;4.63;3.47;;;4.60;99.90;;;;;;5091790;28;20031;-62
2021/11/27 09:06:48;;;;;;;4.65;3.45;;;4.60;99.90;;;;;;5073013;28;20110;-62
2021/11/27 09:09:14;;;;;;;9.25;3.03;;;4.60;99.90;;;;;;5058614;28;20111;-73
2021/11/27 09:11:40;;;;;;;4.28;3.80;;;6.50;99.90;;;;;;5077759;28;20051;-73
2021/11/27 09:14:07;;;;;;;3.47;2.72;;;7.30;99.90;;;;;;5073034;28;20117;-64
2021/11/27 09:16:33;;;;;;;4.55;2.85;;;6.80;99.90;;;;;;5072714;28;20043;-63
2021/11/27 09:18:59;;;;;;;3.00;2.70;;;6.20;99.90;;;;;;5070814;28;20362;-63
2021/11/27 09:21:26;;;;;;;3.30;2.50;;;5.50;99.90;;;;;;5071210;28;20178;-62
2021/11/27 09:23:52;;;;;;;3.38;3.08;;;5.40;99.90;;;;;;5090132;28;20031;-62
2021/11/27 09:26:18;;;;;;;17.17;10.73;;;5.10;99.90;;;;;;5053720;28;20028;-61
2021/11/27 09:28:44;;;;;;;7.32;5.10;;;5.40;99.90;;;;;;5069415;28;20416;-62
2021/11/27 09:31:09;;;;;;;3.40;3.10;;;5.50;99.90;;;;;;5051934;28;20054;-62
2021/11/27 09:33:35;;;;;;;3.40;2.78;;;5.40;99.90;;;;;;5072343;28;20126;-64
2021/11/27 09:36:06;;;;;;;3.10;2.80;;;5.20;99.90;;;;;;5065155;28;20466;-62
2021/11/27 09:38:34;;;;;;;2.53;2.33;;;5.20;99.90;;;;;;5090643;28;20035;-62
2021/11/27 09:41:31;;;;;;;5.72;3.95;;;5.10;99.90;;;;;;5066226;28;20025;-62
2021/11/27 09:44:00;;;;;;;3.50;3.20;;;5.10;99.90;;;;;;5053376;28;20044;-62
2021/11/27 09:46:28;;;;;;;5.72;3.70;;;5.10;99.90;;;;;;5060813;28;20041;-62
2021/11/27 09:48:57;;;;;;;3.88;2.90;;;5.10;99.90;;;;;;5078808;28;20040;-62
2021/11/27 09:51:26;;;;;;;3.97;3.40;;;5.10;99.90;;;;;;5072630;28;20038;-62
2021/11/27 09:53:53;;;;;;;6.15;3.65;;;5.10;99.90;;;;;;5077943;28;20078;-62
2021/11/27 09:56:20;;;;;;;5.30;3.20;;;5.00;99.90;;;;;;5079693;28;20028;-61
2021/11/27 09:58:47;;;;;;;4.75;3.20;;;4.90;99.90;;;;;;5075864;28;20055;-62
2021/11/27 10:01:18;;;;;;;3.88;3.47;;;4.80;99.90;;;;;;5077008;28;20048;-62
2021/11/27 10:03:59;;;;;;;3.55;2.83;;;4.90;99.90;;;;;;5062565;28;20358;-63
2021/11/27 10:06:27;;;;;;;14.90;6.10;;;5.00;99.90;;;;;;5079530;28;20074;-61
2021/11/27 10:08:53;;;;;;;6.88;3.47;;;6.50;99.90;;;;;;5062666;28;20031;-62
2021/11/27 10:11:19;;;;;;;3.65;2.60;;;6.80;99.90;;;;;;5080460;28;20100;-62
2021/11/27 10:13:44;;;;;;;8.50;3.15;;;5.90;99.90;;;;;;5067400;28;20047;-63
2021/11/27 10:16:10;;;;;;;8.07;3.72;;;5.50;99.90;;;;;;5072848;28;20207;-64
2021/11/27 10:18:36;;;;;;;3.63;3.13;;;5.30;99.90;;;;;;5059982;28;20134;-62
2021/11/27 10:21:22;;;;;;;4.32;3.05;;;5.20;99.90;;;;;;5059955;28;20025;-64
2021/11/27 10:23:50;;;;;;;4.25;2.75;;;5.20;99.90;;;;;;5055473;28;20024;-64
2021/11/27 10:26:35;;;;;;;3.47;2.50;;;5.30;99.90;;;;;;5059840;28;20535;-62
2021/11/27 10:29:24;;;;;;;4.65;2.53;;;5.30;99.90;;;;;;5078320;28;20397;-61
2021/11/27 10:32:12;;;;;;;2.95;2.42;;;5.20;99.90;;;;;;5073474;28;20056;-61
2021/11/27 10:34:47;;;;;;;10.68;2.50;;;5.10;99.90;;;;;;5064750;28;20089;-61
2021/11/27 10:37:29;;;;;;;3.15;2.85;;;5.10;99.90;;;;;;5088959;28;20081;-64
2021/11/27 10:40:23;;;;;;;3.75;3.10;;;5.70;99.90;;;;;;5081872;28;20025;-62
2021/11/27 10:43:04;;;;;;;6.00;3.00;;;5.40;99.90;;;;;;5061726;28;20039;-63
2021/11/27 10:45:32;;;;;;;4.25;2.63;;;5.30;99.90;;;;;;5075738;28;20086;-61
2021/11/27 10:48:15;;;;;;;3.67;2.55;;;5.20;99.90;;;;;;5074663;28;20039;-62
2021/11/27 10:50:52;;;;;;;2.60;2.22;;;5.30;99.90;;;;;;5093231;28;20401;-62
2021/11/27 10:53:20;;;;;;;4.82;3.00;;;5.30;99.90;;;;;;5092181;28;20024;-62
2021/11/27 10:55:47;;;;;;;5.13;2.90;;;5.30;99.90;;;;;;5056170;28;20064;-61
2021/11/27 10:58:14;;;;;;;5.95;3.25;;;5.40;99.90;;;;;;5081446;28;20028;-63
2021/11/27 11:00:47;;;;;;;3.05;2.75;;;7.30;99.90;;;;;;5078054;28;20021;-62
2021/11/27 11:03:24;;;;;;;2.85;2.33;;;7.10;99.90;;;;;;5085145;28;20039;-62
2021/11/27 11:05:50;;;;;;;6.18;3.95;;;6.60;99.90;;;;;;5092786;28;20036;-62
2021/11/27 11:08:15;;;;;;;3.38;2.55;;;7.10;99.90;;;;;;5074146;28;20024;-63
2021/11/27 11:10:41;;;;;;;4.95;2.72;;;6.70;99.90;;;;;;5074735;28;20019;-63
2021/11/27 11:13:09;;;;;;;2.30;2.05;;;6.20;99.90;;;;;;5087069;28;20024;-62
2021/11/27 11:15:41;;;;;;;2.92;1.95;;;7.20;99.90;;;;;;5091446;28;20186;-64
2021/11/27 11:18:24;;;;;;;2.55;2.00;;;7.40;99.90;;;;;;5074004;28;20066;-63
2021/11/27 11:20:56;;;;;;;3.95;2.17;;;8.10;99.90;;;;;;5061670;28;20037;-58
2021/11/27 11:23:33;;;;;;;1.90;1.52;;;10.30;99.90;;;;;;5079200;28;20024;-63
2021/11/27 11:26:13;;;;;;;5.45;2.55;;;11.40;99.90;;;;;;5068684;28;20032;-60
2021/11/27 11:28:52;;;;;;;4.50;1.95;;;11.90;99.90;;;;;;5068426;28;20039;-60
2021/11/27 11:31:24;;;;;;;1.50;1.30;;;12.30;99.90;;;;;;5073495;28;20405;-59
2021/11/27 11:33:56;;;;;;;0.80;0.75;;;12.70;99.90;;;;;;5054570;28;20067;-62
2021/11/27 11:36:22;;;;;;;1.42;0.80;;;11.50;99.90;;;;;;5072972;28;20115;-64
2021/11/27 11:38:51;;;;;;;1.85;0.90;;;10.50;99.90;;;;;;5082384;28;20033;-63
2021/11/27 11:41:19;;;;;;;1.27;1.08;;;9.80;99.90;;;;;;5089871;28;20024;-63
2021/11/27 11:43:45;;;;;;;1.90;1.50;;;9.10;99.90;;;;;;5074098;28;20028;-63
2021/11/27 11:46:11;;;;;;;2.40;1.40;;;8.40;99.90;;;;;;5077303;28;20056;-63
2021/11/27 11:48:40;;;;;;;2.88;1.38;;;8.10;99.90;;;;;;5056652;28;20101;-63
2021/11/27 11:51:27;;;;;;;1.77;0.90;;;8.20;99.90;;;;;;5077650;28;20046;-64
2021/11/27 11:53:56;;;;;;;3.08;1.05;;;8.00;99.90;;;;;;5080921;28;20034;-64
2021/11/27 11:56:31;;;;;;;1.75;1.42;;;8.00;99.90;;;;;;5088493;28;20033;-63
2021/11/27 11:59:21;;;;;;;1.75;0.85;;;7.70;99.90;;;;;;5091357;28;20032;-62
2021/11/27 12:02:09;;;;;;;2.22;0.80;;;7.50;99.90;;;;;;5070262;28;20382;-63
2021/11/27 12:04:36;;;;;;;4.32;0.68;;;7.40;99.90;;;;;;5070892;28;20028;-62
2021/11/27 12:08:04;;;;;;;1.45;1.00;;;7.20;99.90;;;;;;5070645;28;20032;-62
2021/11/27 12:10:30;;;;;;;1.55;1.10;;;7.30;99.90;;;;;;5071942;28;20048;-62
2021/11/27 12:13:05;;;;;;;1.85;1.08;;;7.20;99.90;;;;;;5090356;28;20027;-63
2021/11/27 12:15:34;;;;;;;3.20;1.40;;;7.00;99.90;;;;;;5091523;28;20046;-63
2021/11/27 12:18:07;;;;;;;2.05;1.33;;;7.00;99.90;;;;;;5066482;28;20055;-63
2021/11/27 12:20:55;;;;;;;2.40;1.40;;;6.80;99.90;;;;;;5073146;28;20382;-64
2021/11/27 12:23:34;;;;;;;3.38;1.77;;;6.80;99.90;;;;;;5085440;28;20482;-63
2021/11/27 12:26:06;;;;;;;5.55;1.92;;;6.70;99.90;;;;;;5071095;28;20024;-63
2021/11/27 12:28:33;;;;;;;4.65;2.47;;;6.60;99.90;;;;;;5076384;28;20028;-62
2021/11/27 12:31:03;;;;;;;2.53;1.88;;;6.70;99.90;;;;;;5081437;28;20564;-64
2021/11/27 12:33:53;;;;;;;2.50;1.50;;;6.70;99.90;;;;;;5074390;28;20104;-63
2021/11/27 12:36:24;;;;;;;2.40;1.45;;;6.50;99.90;;;;;;5068705;28;20433;-62
2021/11/27 12:39:12;;;;;;;5.10;2.13;;;6.50;99.90;;;;;;5078789;28;20322;-64
2021/11/27 12:42:11;;;;;;;5.45;1.70;;;6.50;99.90;;;;;;5054132;28;20029;-64
2021/11/27 12:44:54;;;;;;;2.25;1.70;;;6.50;99.90;;;;;;5079135;28;20036;-64
2021/11/27 12:47:20;;;;;;;1.92;1.60;;;6.50;99.90;;;;;;5079340;28;20470;-64
2021/11/27 12:49:46;;;;;;;5.90;2.28;;;6.50;99.90;;;;;;5075183;28;20443;-63
2021/11/27 12:52:14;;;;;;;3.05;2.05;;;6.70;99.90;;;;;;5091515;28;20025;-63
2021/11/27 12:54:53;;;;;;;4.13;2.95;;;7.10;99.90;;;;;;5090729;28;20395;-63
2021/11/27 12:57:26;;;;;;;3.42;2.40;;;7.60;99.90;;;;;;5090938;28;20024;-64
2021/11/27 13:00:04;;;;;;;2.78;1.90;;;8.00;99.90;;;;;;5090434;28;20028;-64
2021/11/27 13:02:30;;;;;;;2.80;1.63;;;8.70;99.90;;;;;;5073132;28;20059;-63